Portada
METAR-TAF:

METAR-TAF

Aeroports :

Jabalpur, Índia

latitud: 23-10-54N, longitud: 80-03-31E, altitud: 495 m

Observació

L'informe es va fer fa 5 hores i 37 minuts, a les 15:00 UTC
Vent 6 kt amb direcció variable
Temperatura 30°C
Humitat 49%
Pressió 999 hPa
Visibilitat: 5000 m
calitja

METAR: VAJB 221500Z VRB06KT 5000 HZ NSC 30/18 Q0999 NOSIG

Hora: 02:07 (20:37 UTC)

Pronòstic

L'informe es va fer fa 3 hores i 37 minuts, a les 17:00 UTC
Pronòstic vàlid del 22 a les 18 UTC al 23 a les 04 UTC
Vent 10 kt del Oest
Visibilitat: 5000 m
Escasses núvols a una alçada de 2500 ft
Núvols disperses a una alçada de 10000 ft
calitja

TAF: VAJB 221700Z 2218/2304 27010KT 5000 HZ FEW025 SCT100

Observacions i pronòstics meteorològics de més de 4000 aeroports (METAR i TAF).

Les estacions disponibles són els punts grocs i vermells al mapa.

Posi el ratolí al punt desitjat per veure el nom de l'estació.

Feu clic per veure les observacions i els pronòstics meteorològics.

Per canviar el mapa: feu clic els botons verds amb una creu de color negre per apropar; al botó verd amb un guió per allunyar la imatge; o en les fletxes verdes per a mapes adjacents.


METAR-TAF: